Flight Track Log - Related Links

Times and Time Zones

All times are in EDT time to prevent confusion due to time zone crossing. See the SWA3764 flight status page for this flight to view local times or setup timezone preferences in your user account.

Time Position Orientation Groundspeed Altitude Reporting Facility
EDT Latitude Longitude Course Direction KTS MPH feet Rate Location/Type
Fri 09:17:32 AM 36.0667 -86.6833 180° South 161 185 2,900  Level Nashville TRACON
Fri 09:18:32 AM 36.0167 -86.6833 180° South 229 264 4,700 2,389 Climbing Nashville TRACON
Fri 09:19:20 AM 35.9650 -86.7000 195° South 273 314 7,200 3,500 Climbing Memphis Center
Fri 09:20:20 AM 35.8819 -86.7114 186° South 291 335 11,000 3,300 Climbing Memphis Center
Fri 09:21:20 AM 35.7928 -86.7281 189° South 312 359 13,800 3,150 Climbing Memphis Center
Fri 09:22:20 AM 35.6931 -86.7428 187° South 337 388 17,300 2,813 Climbing Memphis Center
Fri 09:24:49 AM 35.4414 -86.7842 188° South 389 448 23,600 2,584 Climbing Atlanta Center
Fri 09:25:49 AM 35.3161 -86.7903 182° South 396 456 26,300 2,450 Climbing Atlanta Center
Fri 09:26:49 AM 35.1992 -86.7992 184° South 417 480 28,500 2,050 Climbing Atlanta Center
Fri 09:27:49 AM 35.0800 -86.8078 183° South 427 491 30,400 2,150 Climbing Atlanta Center
Fri 09:28:49 AM 34.9631 -86.8114 181° South 427 491 32,800 2,200 Climbing Atlanta Center
Fri 09:29:49 AM 34.8439 -86.8203 184° South 427 491 34,800 2,050 Climbing Atlanta Center
Fri 09:30:49 AM 34.7289 -86.8264 183° South 422 486 36,900 1,800 Climbing Atlanta Center
Fri 09:31:49 AM 34.6142 -86.8353 184° South 422 486 38,400 1,250 Climbing Atlanta Center
Fri 09:32:49 AM 34.5033 -86.8417 183° South 414 476 39,400 800 Climbing Atlanta Center
Fri 09:33:49 AM 34.3883 -86.8481 183° South 414 476 40,000 300 Climbing Atlanta Center
Fri 09:34:49 AM 34.2942 -86.8550 183° South 414 476 40,000  Level Atlanta Center
Fri 09:35:49 AM 34.1672 -86.8456 176° South 419 482 40,000  Level Atlanta Center
Fri 09:36:49 AM 34.0511 -86.8117 166° South 424 488 40,000  Level Atlanta Center
Fri 09:37:49 AM 33.9350 -86.7806 167° South 429 494 40,000 -450 Level Atlanta Center
Fri 09:38:49 AM 33.8186 -86.7492 167° South 429 494 39,100 -500 Descending Atlanta Center
Fri 09:39:49 AM 33.7047 -86.7181 167° South 424 488 39,000 -50 Descending Atlanta Center
Fri 09:40:49 AM 33.5906 -86.6872 167° South 424 488 39,000  Level Atlanta Center
Fri 09:41:49 AM 33.4742 -86.6561 167° South 429 494 39,000  Level Atlanta Center
Fri 09:42:49 AM 33.3600 -86.6256 167° South 429 494 39,000  Level Atlanta Center
Fri 09:43:49 AM 33.2336 -86.5894 167° South 429 494 39,000  Level Atlanta Center
Fri 09:44:49 AM 33.1192 -86.5636 169° South 429 494 39,000  Level Atlanta Center
Fri 09:45:49 AM 33.0008 -86.5406 171° South 429 494 39,000 -150 Level Atlanta Center
Fri 09:46:49 AM 32.8889 -86.5003 163° South 429 494 38,700 -900 Descending Atlanta Center
Fri 09:47:49 AM 32.7747 -86.4697 167° South 429 494 37,200 -1,850 Descending Atlanta Center
Fri 09:48:49 AM 32.6583 -86.4419 169° South 429 494 35,000 -2,350 Descending Atlanta Center
Fri 09:49:49 AM 32.5419 -86.4117 168° South 429 494 32,500 -950 Descending Atlanta Center
Fri 09:55:08 AM 31.9572 -86.2447 166° South 395 455 29,000 -728 Descending Jacksonville Center
Fri 09:56:08 AM 31.8517 -86.2164 167° South 395 455 27,900 -1,550 Descending Jacksonville Center
Fri 09:57:08 AM 31.7500 -86.1858 166° South 390 449 25,900 -1,950 Descending Jacksonville Center
Fri 09:58:08 AM 31.6506 -86.1581 167° South 385 443 24,000 -1,300 Descending Jacksonville Center
Fri 09:59:08 AM 31.5511 -86.1300 166° South 374 430 23,300 -848 Descending Jacksonville Center
Fri 09:59:40 AM 31.4992 -86.1136 165° South 363 418 22,700 -1,000 Descending Jacksonville Center
Fri 10:00:08 AM 31.4536 -86.1022 168° South 368 423 22,300 -985 Descending Jacksonville Center
Fri 10:00:47 AM 31.3956 -86.0856 166° South 364 419 21,600 -1,000 Descending Jacksonville Center
Fri 10:01:08 AM 31.3542 -86.0769 170° South 368 423 21,300 -984 Descending Jacksonville Center
Fri 10:01:48 AM 31.2942 -86.0556 163° South 361 415 20,600 -1,000 Descending Jacksonville Center
Fri 10:02:08 AM 31.2586 -86.0519 175° South 368 423 20,300 -984 Descending Jacksonville Center
Fri 10:02:49 AM 31.1925 -86.0278 163° South 363 418 19,600 -1,000 Descending Jacksonville Center
Fri 10:03:08 AM 31.1614 -86.0219 171° South 368 423 19,300 -1,215 Descending Jacksonville Center
Fri 10:04:08 AM 31.0619 -85.9919 166° South 368 423 18,000 -1,450 Descending Jacksonville Center
Fri 10:05:08 AM 30.9728 -85.9647 165° South 368 423 16,400 -1,750 Descending Jacksonville Center
Fri 10:06:08 AM 30.8753 -85.9397 168° South 368 423 14,500 -2,050 Descending Jacksonville Center
Fri 10:07:08 AM 30.7800 -85.9078 164° South 368 423 12,300 -1,750 Descending Jacksonville Center
Fri 10:08:08 AM 30.6975 -85.8642 156° South 348 400 11,000 -1,250 Descending Jacksonville Center
Fri 10:09:08 AM 30.6211 -85.8231 155° Southeast 321 369 9,800 -1,350 Descending Jacksonville Center
Fri 10:10:08 AM 30.5489 -85.7847 155° Southeast 301 346 8,300 -1,350 Descending Jacksonville Center
Fri 10:11:08 AM 30.4789 -85.7489 156° South 288 331 7,100 -1,300 Descending Jacksonville Center
Fri 10:12:08 AM 30.4106 -85.7131 156° South 278 320 5,700 -1,300 Descending Jacksonville Center
Fri 10:13:08 AM 30.3444 -85.6822 158° South 273 314 4,500 -1,300 Descending Jacksonville Center
Fri 10:14:08 AM 30.2828 -85.6492 155° Southeast 263 303 3,100 -700 Descending Jacksonville Center
Fri 10:15:08 AM 30.2247 -85.6186 156° South 244 281 3,100 -50 Level Jacksonville Center
Fri 10:16:08 AM 30.1700 -85.6386 198° South 207 238 3,000 -50 Descending Jacksonville Center
Fri 10:17:08 AM 30.1539 -85.7175 257° West 187 215 3,000  Level Jacksonville Center
Fri 10:18:08 AM 30.1111 -85.7619 222° Southwest 215 247 3,000  Level Jacksonville Center
Fri 10:19:08 AM 30.0617 -85.7339 154° Southeast 171 197 3,000  Level Jacksonville Center
Fri 10:20:08 AM 30.0689 -85.6814 81° East 110 127 3,000  Level Jacksonville Center
Fri 10:21:08 AM 30.1250 -85.6928 350° North 84 97 3,000  Level Jacksonville Center
Fri 10:22:08 AM 30.1769 -85.7158 339° North 142 163 3,000 -200 Level Jacksonville Center
Fri 10:23:08 AM 30.2222 -85.7364 339° North 163 188 2,600 -600 Descending Jacksonville Center
Fri 10:24:08 AM 30.2658 -85.7544 340° North 170 196 1,800 -800 Descending Jacksonville Center
Fri 10:25:08 AM 30.3028 -85.7725 337° Northwest 158 182 1,000 -800 Descending Jacksonville Center
Fri 10:26:08 AM 30.3400 -85.7881 340° North 152 175 200 5,000 Descending Jacksonville Center
Fri 10:27:08 AM 30.3814 -85.8086 337° Northwest 152 175 11,000 10,800 Climbing Jacksonville Center
Fri 10:29:00 AM 30.3852 -85.5592 89° East  Level Estimated
Fri 10:36:00 AM 30.3951 -84.6240 89° East  Level Estimated

Login

Don't have an account? Register now (free) for customized features, flight alerts, and more!